sensor_id;sensor_type;location;lat;lon;timestamp;P1;durP1;ratioP1;P2;durP2;ratioP2
26516;SDS011;14190;51.342;6.338;2023-03-03T00:01:07;227.82;;;75.92;;
26516;SDS011;14190;51.342;6.338;2023-03-03T00:03:34;223.60;;;77.87;;
26516;SDS011;14190;51.342;6.338;2023-03-03T00:06:03;216.00;;;78.00;;
26516;SDS011;14190;51.342;6.338;2023-03-03T00:08:30;233.85;;;78.52;;
26516;SDS011;14190;51.342;6.338;2023-03-03T00:10:58;245.33;;;75.67;;
26516;SDS011;14190;51.342;6.338;2023-03-03T00:13:26;217.28;;;75.78;;
26516;SDS011;14190;51.342;6.338;2023-03-03T00:15:54;218.78;;;73.75;;
26516;SDS011;14190;51.342;6.338;2023-03-03T00:18:32;227.30;;;76.65;;
26516;SDS011;14190;51.342;6.338;2023-03-03T00:21:02;231.23;;;76.82;;
26516;SDS011;14190;51.342;6.338;2023-03-03T00:23:30;223.38;;;75.25;;
26516;SDS011;14190;51.342;6.338;2023-03-03T00:25:58;218.10;;;76.10;;
26516;SDS011;14190;51.342;6.338;2023-03-03T00:28:32;224.27;;;79.23;;
26516;SDS011;14190;51.342;6.338;2023-03-03T00:31:00;239.10;;;75.52;;
26516;SDS011;14190;51.342;6.338;2023-03-03T00:33:33;207.05;;;67.30;;
26516;SDS011;14190;51.342;6.338;2023-03-03T00:38:47;192.20;;;69.92;;
26516;SDS011;14190;51.342;6.338;2023-03-03T00:41:24;198.55;;;70.37;;
26516;SDS011;14190;51.342;6.338;2023-03-03T00:43:43;198.45;;;69.90;;
26516;SDS011;14190;51.342;6.338;2023-03-03T00:46:12;188.52;;;63.55;;
26516;SDS011;14190;51.342;6.338;2023-03-03T00:48:40;197.22;;;70.22;;
26516;SDS011;14190;51.342;6.338;2023-03-03T00:53:40;181.25;;;64.90;;
26516;SDS011;14190;51.342;6.338;2023-03-03T00:56:08;170.05;;;57.25;;
26516;SDS011;14190;51.342;6.338;2023-03-03T00:58:35;169.93;;;61.25;;
26516;SDS011;14190;51.342;6.338;2023-03-03T01:01:02;173.82;;;63.40;;
26516;SDS011;14190;51.342;6.338;2023-03-03T01:03:32;162.68;;;60.35;;
26516;SDS011;14190;51.342;6.338;2023-03-03T01:05:59;156.55;;;58.00;;
26516;SDS011;14190;51.342;6.338;2023-03-03T01:08:27;159.67;;;56.33;;
26516;SDS011;14190;51.342;6.338;2023-03-03T01:10:55;141.07;;;53.00;;
26516;SDS011;14190;51.342;6.338;2023-03-03T01:13:27;138.90;;;51.25;;
26516;SDS011;14190;51.342;6.338;2023-03-03T01:15:56;150.85;;;53.87;;
26516;SDS011;14190;51.342;6.338;2023-03-03T01:18:26;153.38;;;54.38;;
26516;SDS011;14190;51.342;6.338;2023-03-03T01:20:54;140.25;;;53.45;;
26516;SDS011;14190;51.342;6.338;2023-03-03T01:23:21;138.35;;;50.83;;
26516;SDS011;14190;51.342;6.338;2023-03-03T01:25:49;140.77;;;50.73;;
26516;SDS011;14190;51.342;6.338;2023-03-03T01:28:16;144.00;;;52.20;;
26516;SDS011;14190;51.342;6.338;2023-03-03T01:30:44;139.12;;;48.73;;
26516;SDS011;14190;51.342;6.338;2023-03-03T01:33:11;136.25;;;52.25;;
26516;SDS011;14190;51.342;6.338;2023-03-03T01:35:45;137.95;;;50.23;;
26516;SDS011;14190;51.342;6.338;2023-03-03T01:38:14;112.55;;;48.05;;
26516;SDS011;14190;51.342;6.338;2023-03-03T01:40:42;109.20;;;44.42;;
26516;SDS011;14190;51.342;6.338;2023-03-03T01:43:11;105.52;;;43.33;;
26516;SDS011;14190;51.342;6.338;2023-03-03T01:46:19;104.32;;;42.62;;
26516;SDS011;14190;51.342;6.338;2023-03-03T01:48:17;109.22;;;44.90;;
26516;SDS011;14190;51.342;6.338;2023-03-03T01:50:56;111.22;;;42.50;;
26516;SDS011;14190;51.342;6.338;2023-03-03T01:53:27;118.82;;;45.95;;
26516;SDS011;14190;51.342;6.338;2023-03-03T01:55:55;114.95;;;44.77;;
26516;SDS011;14190;51.342;6.338;2023-03-03T01:58:30;116.97;;;45.38;;
26516;SDS011;14190;51.342;6.338;2023-03-03T02:00:56;112.28;;;45.00;;
26516;SDS011;14190;51.342;6.338;2023-03-03T02:03:24;117.25;;;44.90;;
26516;SDS011;14190;51.342;6.338;2023-03-03T02:05:52;109.25;;;40.73;;
26516;SDS011;14190;51.342;6.338;2023-03-03T02:08:20;113.92;;;44.58;;
26516;SDS011;14190;51.342;6.338;2023-03-03T02:10:50;110.75;;;43.63;;
26516;SDS011;14190;51.342;6.338;2023-03-03T02:13:17;110.88;;;44.40;;
26516;SDS011;14190;51.342;6.338;2023-03-03T02:15:45;104.32;;;43.40;;
26516;SDS011;14190;51.342;6.338;2023-03-03T02:18:13;109.87;;;45.67;;
26516;SDS011;14190;51.342;6.338;2023-03-03T02:30:53;109.32;;;42.27;;
26516;SDS011;14190;51.342;6.338;2023-03-03T02:33:22;103.00;;;41.40;;
26516;SDS011;14190;51.342;6.338;2023-03-03T02:35:50;112.45;;;41.88;;
26516;SDS011;14190;51.342;6.338;2023-03-03T02:44:00;97.53;;;36.80;;
26516;SDS011;14190;51.342;6.338;2023-03-03T02:46:29;94.22;;;37.60;;
26516;SDS011;14190;51.342;6.338;2023-03-03T02:48:58;100.67;;;36.85;;
26516;SDS011;14190;51.342;6.338;2023-03-03T02:51:26;100.18;;;38.98;;
26516;SDS011;14190;51.342;6.338;2023-03-03T02:53:53;94.30;;;36.68;;
26516;SDS011;14190;51.342;6.338;2023-03-03T02:56:22;101.70;;;38.95;;
26516;SDS011;14190;51.342;6.338;2023-03-03T02:58:50;94.45;;;36.23;;
26516;SDS011;14190;51.342;6.338;2023-03-03T03:01:18;99.85;;;39.13;;
26516;SDS011;14190;51.342;6.338;2023-03-03T03:03:45;100.50;;;36.85;;
26516;SDS011;14190;51.342;6.338;2023-03-03T03:06:15;91.02;;;35.85;;
26516;SDS011;14190;51.342;6.338;2023-03-03T03:08:42;94.22;;;37.10;;
26516;SDS011;14190;51.342;6.338;2023-03-03T03:11:10;100.07;;;37.75;;
26516;SDS011;14190;51.342;6.338;2023-03-03T03:13:37;95.12;;;36.40;;
26516;SDS011;14190;51.342;6.338;2023-03-03T03:16:05;92.37;;;34.85;;
26516;SDS011;14190;51.342;6.338;2023-03-03T03:18:33;90.20;;;32.28;;
26516;SDS011;14190;51.342;6.338;2023-03-03T03:21:07;97.55;;;35.40;;
26516;SDS011;14190;51.342;6.338;2023-03-03T03:23:36;104.35;;;39.08;;
26516;SDS011;14190;51.342;6.338;2023-03-03T03:26:04;106.20;;;36.48;;
26516;SDS011;14190;51.342;6.338;2023-03-03T03:28:32;106.97;;;39.20;;
26516;SDS011;14190;51.342;6.338;2023-03-03T03:31:00;103.42;;;36.40;;
26516;SDS011;14190;51.342;6.338;2023-03-03T03:33:28;101.07;;;36.45;;
26516;SDS011;14190;51.342;6.338;2023-03-03T03:35:56;105.25;;;36.88;;
26516;SDS011;14190;51.342;6.338;2023-03-03T03:38:24;105.92;;;38.48;;
26516;SDS011;14190;51.342;6.338;2023-03-03T03:40:53;107.47;;;39.58;;
26516;SDS011;14190;51.342;6.338;2023-03-03T03:43:21;105.00;;;37.50;;
26516;SDS011;14190;51.342;6.338;2023-03-03T03:45:48;107.65;;;36.40;;
26516;SDS011;14190;51.342;6.338;2023-03-03T03:48:16;114.45;;;40.63;;
26516;SDS011;14190;51.342;6.338;2023-03-03T03:50:48;102.80;;;39.65;;
26516;SDS011;14190;51.342;6.338;2023-03-03T03:53:16;115.25;;;41.40;;
26516;SDS011;14190;51.342;6.338;2023-03-03T03:55:44;91.95;;;35.03;;
26516;SDS011;14190;51.342;6.338;2023-03-03T03:58:12;103.35;;;37.42;;
26516;SDS011;14190;51.342;6.338;2023-03-03T04:00:40;107.83;;;40.05;;
26516;SDS011;14190;51.342;6.338;2023-03-03T04:03:10;102.20;;;38.40;;
26516;SDS011;14190;51.342;6.338;2023-03-03T04:05:39;102.67;;;36.80;;
26516;SDS011;14190;51.342;6.338;2023-03-03T04:08:07;111.65;;;39.78;;
26516;SDS011;14190;51.342;6.338;2023-03-03T04:10:35;112.00;;;38.48;;
26516;SDS011;14190;51.342;6.338;2023-03-03T04:13:03;117.50;;;41.18;;
26516;SDS011;14190;51.342;6.338;2023-03-03T04:15:31;120.25;;;41.58;;
26516;SDS011;14190;51.342;6.338;2023-03-03T04:17:59;124.67;;;41.65;;
26516;SDS011;14190;51.342;6.338;2023-03-03T04:20:26;123.65;;;40.65;;
26516;SDS011;14190;51.342;6.338;2023-03-03T04:22:54;121.95;;;40.85;;
26516;SDS011;14190;51.342;6.338;2023-03-03T04:25:23;126.25;;;41.80;;
26516;SDS011;14190;51.342;6.338;2023-03-03T04:27:51;122.47;;;42.38;;
26516;SDS011;14190;51.342;6.338;2023-03-03T04:30:20;135.00;;;42.20;;
26516;SDS011;14190;51.342;6.338;2023-03-03T04:32:49;112.97;;;38.95;;
26516;SDS011;14190;51.342;6.338;2023-03-03T04:35:18;122.10;;;40.75;;
26516;SDS011;14190;51.342;6.338;2023-03-03T04:37:45;123.02;;;41.65;;
26516;SDS011;14190;51.342;6.338;2023-03-03T04:40:14;112.72;;;38.17;;
26516;SDS011;14190;51.342;6.338;2023-03-03T04:42:44;116.53;;;40.17;;
26516;SDS011;14190;51.342;6.338;2023-03-03T04:45:12;113.92;;;38.15;;
26516;SDS011;14190;51.342;6.338;2023-03-03T04:47:41;113.37;;;39.18;;
26516;SDS011;14190;51.342;6.338;2023-03-03T04:50:09;111.03;;;35.88;;
26516;SDS011;14190;51.342;6.338;2023-03-03T04:52:37;106.32;;;38.05;;
26516;SDS011;14190;51.342;6.338;2023-03-03T04:55:05;102.38;;;38.40;;
26516;SDS011;14190;51.342;6.338;2023-03-03T04:57:33;103.42;;;37.93;;
26516;SDS011;14190;51.342;6.338;2023-03-03T05:00:01;113.12;;;39.20;;
26516;SDS011;14190;51.342;6.338;2023-03-03T05:02:29;127.22;;;43.20;;
26516;SDS011;14190;51.342;6.338;2023-03-03T05:04:57;130.52;;;42.93;;
26516;SDS011;14190;51.342;6.338;2023-03-03T05:07:24;126.07;;;43.78;;
26516;SDS011;14190;51.342;6.338;2023-03-03T05:09:52;136.12;;;43.95;;
26516;SDS011;14190;51.342;6.338;2023-03-03T05:12:19;125.80;;;43.73;;
26516;SDS011;14190;51.342;6.338;2023-03-03T05:14:46;123.62;;;41.00;;
26516;SDS011;14190;51.342;6.338;2023-03-03T05:17:14;130.27;;;41.83;;
26516;SDS011;14190;51.342;6.338;2023-03-03T05:19:41;131.43;;;42.33;;
26516;SDS011;14190;51.342;6.338;2023-03-03T05:22:09;119.10;;;39.18;;
26516;SDS011;14190;51.342;6.338;2023-03-03T05:24:36;119.40;;;38.45;;
26516;SDS011;14190;51.342;6.338;2023-03-03T05:27:03;118.72;;;40.67;;
26516;SDS011;14190;51.342;6.338;2023-03-03T05:29:31;114.82;;;39.23;;
26516;SDS011;14190;51.342;6.338;2023-03-03T05:31:58;129.25;;;41.30;;
26516;SDS011;14190;51.342;6.338;2023-03-03T05:34:26;129.38;;;40.20;;
26516;SDS011;14190;51.342;6.338;2023-03-03T05:36:53;126.90;;;39.85;;
26516;SDS011;14190;51.342;6.338;2023-03-03T05:39:21;114.95;;;40.03;;
26516;SDS011;14190;51.342;6.338;2023-03-03T05:41:48;119.47;;;39.50;;
26516;SDS011;14190;51.342;6.338;2023-03-03T05:44:16;109.70;;;39.25;;
26516;SDS011;14190;51.342;6.338;2023-03-03T05:46:43;119.55;;;38.38;;
26516;SDS011;14190;51.342;6.338;2023-03-03T05:49:11;99.47;;;33.35;;
26516;SDS011;14190;51.342;6.338;2023-03-03T05:51:39;117.30;;;37.15;;
26516;SDS011;14190;51.342;6.338;2023-03-03T05:54:07;115.75;;;39.35;;
26516;SDS011;14190;51.342;6.338;2023-03-03T05:56:34;118.72;;;39.50;;
26516;SDS011;14190;51.342;6.338;2023-03-03T05:59:02;120.62;;;40.80;;
26516;SDS011;14190;51.342;6.338;2023-03-03T06:01:29;124.78;;;40.58;;
26516;SDS011;14190;51.342;6.338;2023-03-03T06:03:57;116.62;;;41.35;;
26516;SDS011;14190;51.342;6.338;2023-03-03T06:06:25;120.25;;;39.18;;
26516;SDS011;14190;51.342;6.338;2023-03-03T06:08:53;114.45;;;39.85;;
26516;SDS011;14190;51.342;6.338;2023-03-03T06:11:21;125.40;;;39.75;;
26516;SDS011;14190;51.342;6.338;2023-03-03T06:13:48;128.70;;;40.63;;
26516;SDS011;14190;51.342;6.338;2023-03-03T06:16:16;120.45;;;39.23;;
26516;SDS011;14190;51.342;6.338;2023-03-03T06:18:43;118.50;;;40.50;;
26516;SDS011;14190;51.342;6.338;2023-03-03T06:21:10;117.08;;;40.00;;
26516;SDS011;14190;51.342;6.338;2023-03-03T06:23:38;117.93;;;41.00;;
26516;SDS011;14190;51.342;6.338;2023-03-03T06:26:05;121.35;;;42.45;;
26516;SDS011;14190;51.342;6.338;2023-03-03T06:28:33;130.75;;;40.98;;
26516;SDS011;14190;51.342;6.338;2023-03-03T06:31:00;119.50;;;41.50;;
26516;SDS011;14190;51.342;6.338;2023-03-03T06:33:28;120.77;;;38.55;;
26516;SDS011;14190;51.342;6.338;2023-03-03T06:35:55;123.28;;;40.38;;
26516;SDS011;14190;51.342;6.338;2023-03-03T06:38:23;104.70;;;35.73;;
26516;SDS011;14190;51.342;6.338;2023-03-03T06:40:50;119.87;;;43.10;;
26516;SDS011;14190;51.342;6.338;2023-03-03T06:43:18;129.57;;;41.37;;
26516;SDS011;14190;51.342;6.338;2023-03-03T06:45:46;115.72;;;40.48;;
26516;SDS011;14190;51.342;6.338;2023-03-03T06:48:13;109.15;;;36.55;;
26516;SDS011;14190;51.342;6.338;2023-03-03T06:50:40;103.38;;;33.80;;
26516;SDS011;14190;51.342;6.338;2023-03-03T06:55:40;100.25;;;34.27;;
26516;SDS011;14190;51.342;6.338;2023-03-03T06:58:13;101.40;;;34.00;;
26516;SDS011;14190;51.342;6.338;2023-03-03T07:00:40;100.20;;;33.70;;
26516;SDS011;14190;51.342;6.338;2023-03-03T07:03:14;106.35;;;35.40;;
26516;SDS011;14190;51.342;6.338;2023-03-03T07:05:41;97.92;;;35.80;;
26516;SDS011;14190;51.342;6.338;2023-03-03T07:08:12;98.95;;;35.73;;
26516;SDS011;14190;51.342;6.338;2023-03-03T07:10:38;99.92;;;35.20;;
26516;SDS011;14190;51.342;6.338;2023-03-03T07:13:25;106.05;;;34.80;;
26516;SDS011;14190;51.342;6.338;2023-03-03T07:15:53;92.40;;;34.18;;
26516;SDS011;14190;51.342;6.338;2023-03-03T07:18:24;97.37;;;33.92;;
26516;SDS011;14190;51.342;6.338;2023-03-03T07:20:50;100.47;;;35.15;;
26516;SDS011;14190;51.342;6.338;2023-03-03T07:23:29;94.85;;;34.48;;
26516;SDS011;14190;51.342;6.338;2023-03-03T07:25:56;93.95;;;33.30;;
26516;SDS011;14190;51.342;6.338;2023-03-03T07:28:24;90.45;;;34.45;;
26516;SDS011;14190;51.342;6.338;2023-03-03T07:30:52;87.97;;;32.63;;
26516;SDS011;14190;51.342;6.338;2023-03-03T07:33:25;87.17;;;31.12;;
26516;SDS011;14190;51.342;6.338;2023-03-03T07:35:57;90.10;;;33.63;;
26516;SDS011;14190;51.342;6.338;2023-03-03T07:40:57;96.60;;;32.55;;
26516;SDS011;14190;51.342;6.338;2023-03-03T07:43:28;85.15;;;32.80;;
26516;SDS011;14190;51.342;6.338;2023-03-03T07:46:01;84.90;;;30.23;;
26516;SDS011;14190;51.342;6.338;2023-03-03T07:48:35;87.92;;;30.37;;
26516;SDS011;14190;51.342;6.338;2023-03-03T07:51:10;84.77;;;30.65;;
26516;SDS011;14190;51.342;6.338;2023-03-03T07:53:33;84.47;;;29.77;;
26516;SDS011;14190;51.342;6.338;2023-03-03T07:56:06;80.63;;;28.93;;
26516;SDS011;14190;51.342;6.338;2023-03-03T07:58:38;85.53;;;31.57;;
26516;SDS011;14190;51.342;6.338;2023-03-03T08:03:55;87.45;;;32.03;;
26516;SDS011;14190;51.342;6.338;2023-03-03T08:14:27;84.60;;;31.77;;
26516;SDS011;14190;51.342;6.338;2023-03-03T08:16:54;89.97;;;28.92;;
26516;SDS011;14190;51.342;6.338;2023-03-03T08:19:22;85.87;;;31.68;;
26516;SDS011;14190;51.342;6.338;2023-03-03T08:21:50;95.30;;;33.65;;
26516;SDS011;14190;51.342;6.338;2023-03-03T08:24:18;87.60;;;32.50;;
26516;SDS011;14190;51.342;6.338;2023-03-03T08:26:46;85.55;;;31.23;;
26516;SDS011;14190;51.342;6.338;2023-03-03T08:29:14;91.97;;;34.98;;
26516;SDS011;14190;51.342;6.338;2023-03-03T08:31:41;91.85;;;33.90;;
26516;SDS011;14190;51.342;6.338;2023-03-03T08:34:08;89.32;;;32.42;;
26516;SDS011;14190;51.342;6.338;2023-03-03T08:36:36;87.25;;;30.68;;
26516;SDS011;14190;51.342;6.338;2023-03-03T08:39:03;93.17;;;34.30;;
26516;SDS011;14190;51.342;6.338;2023-03-03T08:41:31;83.40;;;32.55;;
26516;SDS011;14190;51.342;6.338;2023-03-03T08:43:58;84.90;;;31.85;;
26516;SDS011;14190;51.342;6.338;2023-03-03T08:46:26;83.47;;;33.42;;
26516;SDS011;14190;51.342;6.338;2023-03-03T08:48:53;78.72;;;32.10;;
26516;SDS011;14190;51.342;6.338;2023-03-03T08:51:21;82.50;;;30.10;;
26516;SDS011;14190;51.342;6.338;2023-03-03T08:53:48;81.25;;;31.52;;
26516;SDS011;14190;51.342;6.338;2023-03-03T08:56:15;74.55;;;30.62;;
26516;SDS011;14190;51.342;6.338;2023-03-03T08:58:43;83.75;;;29.90;;
26516;SDS011;14190;51.342;6.338;2023-03-03T09:01:13;80.55;;;31.95;;
26516;SDS011;14190;51.342;6.338;2023-03-03T09:03:42;73.75;;;31.00;;
26516;SDS011;14190;51.342;6.338;2023-03-03T09:06:10;80.87;;;32.78;;
26516;SDS011;14190;51.342;6.338;2023-03-03T09:08:38;85.30;;;32.08;;
26516;SDS011;14190;51.342;6.338;2023-03-03T09:11:11;78.20;;;31.00;;
26516;SDS011;14190;51.342;6.338;2023-03-03T09:13:39;78.83;;;29.37;;
26516;SDS011;14190;51.342;6.338;2023-03-03T09:16:10;88.15;;;32.25;;
26516;SDS011;14190;51.342;6.338;2023-03-03T09:18:36;83.20;;;33.65;;
26516;SDS011;14190;51.342;6.338;2023-03-03T09:21:20;83.92;;;33.00;;
26516;SDS011;14190;51.342;6.338;2023-03-03T09:23:55;78.50;;;30.08;;
26516;SDS011;14190;51.342;6.338;2023-03-03T09:26:30;78.28;;;29.87;;
26516;SDS011;14190;51.342;6.338;2023-03-03T09:31:43;80.15;;;31.77;;
26516;SDS011;14190;51.342;6.338;2023-03-03T09:34:15;77.27;;;31.50;;
26516;SDS011;14190;51.342;6.338;2023-03-03T09:36:42;67.80;;;28.20;;
26516;SDS011;14190;51.342;6.338;2023-03-03T09:39:20;76.40;;;30.75;;
26516;SDS011;14190;51.342;6.338;2023-03-03T09:47:22;77.87;;;30.23;;
26516;SDS011;14190;51.342;6.338;2023-03-03T09:55:03;84.20;;;33.20;;
26516;SDS011;14190;51.342;6.338;2023-03-03T09:57:43;83.12;;;32.25;;
26516;SDS011;14190;51.342;6.338;2023-03-03T10:00:23;81.67;;;32.28;;
26516;SDS011;14190;51.342;6.338;2023-03-03T10:02:51;82.40;;;30.72;;
26516;SDS011;14190;51.342;6.338;2023-03-03T10:05:18;72.25;;;29.98;;
26516;SDS011;14190;51.342;6.338;2023-03-03T10:21:10;79.72;;;30.85;;
26516;SDS011;14190;51.342;6.338;2023-03-03T10:34:06;82.40;;;31.10;;
26516;SDS011;14190;51.342;6.338;2023-03-03T10:44:40;81.05;;;32.03;;
26516;SDS011;14190;51.342;6.338;2023-03-03T10:54:56;76.57;;;28.73;;
26516;SDS011;14190;51.342;6.338;2023-03-03T11:02:41;82.65;;;31.10;;
26516;SDS011;14190;51.342;6.338;2023-03-03T11:07:56;89.00;;;31.30;;
26516;SDS011;14190;51.342;6.338;2023-03-03T11:10:33;75.83;;;29.32;;
26516;SDS011;14190;51.342;6.338;2023-03-03T11:12:59;80.90;;;30.62;;
26516;SDS011;14190;51.342;6.338;2023-03-03T11:15:47;79.92;;;29.15;;
26516;SDS011;14190;51.342;6.338;2023-03-03T11:20:54;84.30;;;29.00;;
26516;SDS011;14190;51.342;6.338;2023-03-03T11:31:31;69.22;;;26.77;;
26516;SDS011;14190;51.342;6.338;2023-03-03T11:36:51;65.60;;;26.05;;
26516;SDS011;14190;51.342;6.338;2023-03-03T11:39:17;66.35;;;23.55;;
26516;SDS011;14190;51.342;6.338;2023-03-03T11:41:57;66.67;;;25.05;;
26516;SDS011;14190;51.342;6.338;2023-03-03T11:52:28;67.90;;;27.00;;
26516;SDS011;14190;51.342;6.338;2023-03-03T11:55:03;73.52;;;26.77;;
26516;SDS011;14190;51.342;6.338;2023-03-03T11:57:40;72.08;;;27.85;;
26516;SDS011;14190;51.342;6.338;2023-03-03T12:00:15;67.12;;;27.62;;
26516;SDS011;14190;51.342;6.338;2023-03-03T12:02:53;67.25;;;26.42;;
26516;SDS011;14190;51.342;6.338;2023-03-03T12:08:17;68.00;;;26.35;;
26516;SDS011;14190;51.342;6.338;2023-03-03T12:10:45;72.03;;;29.50;;
26516;SDS011;14190;51.342;6.338;2023-03-03T12:13:14;68.37;;;28.38;;
26516;SDS011;14190;51.342;6.338;2023-03-03T12:15:48;67.92;;;26.62;;
26516;SDS011;14190;51.342;6.338;2023-03-03T12:26:11;69.65;;;26.10;;
26516;SDS011;14190;51.342;6.338;2023-03-03T12:28:40;63.78;;;24.18;;
26516;SDS011;14190;51.342;6.338;2023-03-03T12:31:12;67.30;;;25.02;;
26516;SDS011;14190;51.342;6.338;2023-03-03T12:41:25;65.15;;;24.30;;
26516;SDS011;14190;51.342;6.338;2023-03-03T12:43:54;62.65;;;23.10;;
26516;SDS011;14190;51.342;6.338;2023-03-03T12:49:08;63.90;;;23.85;;
26516;SDS011;14190;51.342;6.338;2023-03-03T12:56:44;65.00;;;23.27;;
26516;SDS011;14190;51.342;6.338;2023-03-03T12:59:23;62.40;;;23.60;;
26516;SDS011;14190;51.342;6.338;2023-03-03T13:07:14;66.10;;;23.87;;
26516;SDS011;14190;51.342;6.338;2023-03-03T13:12:25;62.53;;;26.73;;
26516;SDS011;14190;51.342;6.338;2023-03-03T13:17:43;64.62;;;25.60;;
26516;SDS011;14190;51.342;6.338;2023-03-03T13:20:13;62.73;;;24.67;;
26516;SDS011;14190;51.342;6.338;2023-03-03T13:22:43;62.03;;;24.07;;
26516;SDS011;14190;51.342;6.338;2023-03-03T13:27:49;59.42;;;23.45;;
26516;SDS011;14190;51.342;6.338;2023-03-03T13:30:23;56.48;;;20.80;;
26516;SDS011;14190;51.342;6.338;2023-03-03T13:32:54;58.28;;;25.52;;
26516;SDS011;14190;51.342;6.338;2023-03-03T13:35:39;56.28;;;22.22;;
26516;SDS011;14190;51.342;6.338;2023-03-03T13:38:13;55.60;;;22.93;;
26516;SDS011;14190;51.342;6.338;2023-03-03T13:40:44;59.50;;;24.92;;
26516;SDS011;14190;51.342;6.338;2023-03-03T13:43:18;51.63;;;22.17;;
26516;SDS011;14190;51.342;6.338;2023-03-03T13:50:50;61.85;;;21.52;;
26516;SDS011;14190;51.342;6.338;2023-03-03T13:56:05;48.90;;;21.55;;
26516;SDS011;14190;51.342;6.338;2023-03-03T13:58:31;56.18;;;22.87;;
26516;SDS011;14190;51.342;6.338;2023-03-03T14:01:00;50.55;;;21.02;;
26516;SDS011;14190;51.342;6.338;2023-03-03T14:06:06;51.30;;;22.10;;
26516;SDS011;14190;51.342;6.338;2023-03-03T14:11:25;58.60;;;21.48;;
26516;SDS011;14190;51.342;6.338;2023-03-03T14:13:55;50.08;;;22.32;;
26516;SDS011;14190;51.342;6.338;2023-03-03T14:16:42;51.90;;;21.50;;
26516;SDS011;14190;51.342;6.338;2023-03-03T14:19:16;59.63;;;20.40;;
26516;SDS011;14190;51.342;6.338;2023-03-03T14:24:19;53.50;;;22.32;;
26516;SDS011;14190;51.342;6.338;2023-03-03T14:26:50;51.58;;;21.02;;
26516;SDS011;14190;51.342;6.338;2023-03-03T14:29:19;47.30;;;19.10;;
26516;SDS011;14190;51.342;6.338;2023-03-03T14:31:47;55.98;;;22.40;;
26516;SDS011;14190;51.342;6.338;2023-03-03T14:36:56;58.30;;;21.70;;
26516;SDS011;14190;51.342;6.338;2023-03-03T14:39:34;49.35;;;21.75;;
26516;SDS011;14190;51.342;6.338;2023-03-03T14:44:52;53.20;;;21.48;;
26516;SDS011;14190;51.342;6.338;2023-03-03T14:49:50;49.58;;;18.52;;
26516;SDS011;14190;51.342;6.338;2023-03-03T14:52:18;46.68;;;19.82;;
26516;SDS011;14190;51.342;6.338;2023-03-03T14:54:51;50.28;;;20.05;;
26516;SDS011;14190;51.342;6.338;2023-03-03T14:57:16;47.98;;;20.50;;
26516;SDS011;14190;51.342;6.338;2023-03-03T15:00:00;48.35;;;21.05;;
26516;SDS011;14190;51.342;6.338;2023-03-03T15:02:26;44.08;;;19.48;;
26516;SDS011;14190;51.342;6.338;2023-03-03T15:05:11;41.10;;;18.98;;
26516;SDS011;14190;51.342;6.338;2023-03-03T15:07:36;42.88;;;19.37;;
26516;SDS011;14190;51.342;6.338;2023-03-03T15:10:10;51.05;;;20.15;;
26516;SDS011;14190;51.342;6.338;2023-03-03T15:12:39;46.83;;;20.72;;
26516;SDS011;14190;51.342;6.338;2023-03-03T15:15:16;42.35;;;19.23;;
26516;SDS011;14190;51.342;6.338;2023-03-03T15:17:36;45.55;;;20.48;;
26516;SDS011;14190;51.342;6.338;2023-03-03T15:20:21;47.45;;;19.32;;
26516;SDS011;14190;51.342;6.338;2023-03-03T15:25:25;46.98;;;19.32;;
26516;SDS011;14190;51.342;6.338;2023-03-03T15:28:07;44.73;;;18.25;;
26516;SDS011;14190;51.342;6.338;2023-03-03T15:30:31;42.85;;;19.85;;
26516;SDS011;14190;51.342;6.338;2023-03-03T15:33:20;42.75;;;18.92;;
26516;SDS011;14190;51.342;6.338;2023-03-03T15:35:47;46.23;;;19.62;;
26516;SDS011;14190;51.342;6.338;2023-03-03T15:38:22;38.40;;;18.65;;
26516;SDS011;14190;51.342;6.338;2023-03-03T15:40:47;42.50;;;18.60;;
26516;SDS011;14190;51.342;6.338;2023-03-03T15:43:26;39.27;;;18.48;;
26516;SDS011;14190;51.342;6.338;2023-03-03T15:46:11;46.35;;;20.77;;
26516;SDS011;14190;51.342;6.338;2023-03-03T15:53:51;36.17;;;17.07;;
26516;SDS011;14190;51.342;6.338;2023-03-03T15:56:18;39.48;;;18.65;;
26516;SDS011;14190;51.342;6.338;2023-03-03T15:58:50;36.40;;;17.80;;
26516;SDS011;14190;51.342;6.338;2023-03-03T16:01:25;36.03;;;17.17;;
26516;SDS011;14190;51.342;6.338;2023-03-03T16:03:59;41.25;;;19.75;;
26516;SDS011;14190;51.342;6.338;2023-03-03T16:16:59;39.05;;;18.85;;
26516;SDS011;14190;51.342;6.338;2023-03-03T16:19:34;34.18;;;17.52;;
26516;SDS011;14190;51.342;6.338;2023-03-03T16:32:31;34.15;;;16.65;;
26516;SDS011;14190;51.342;6.338;2023-03-03T16:34:57;28.20;;;14.58;;
26516;SDS011;14190;51.342;6.338;2023-03-03T16:37:40;33.63;;;16.65;;
26516;SDS011;14190;51.342;6.338;2023-03-03T16:40:22;31.68;;;16.05;;
26516;SDS011;14190;51.342;6.338;2023-03-03T16:42:48;34.98;;;15.70;;
26516;SDS011;14190;51.342;6.338;2023-03-03T16:45:26;32.05;;;16.77;;
26516;SDS011;14190;51.342;6.338;2023-03-03T16:50:47;36.15;;;16.00;;
26516;SDS011;14190;51.342;6.338;2023-03-03T16:58:46;33.60;;;16.87;;
26516;SDS011;14190;51.342;6.338;2023-03-03T17:01:19;35.90;;;17.48;;
26516;SDS011;14190;51.342;6.338;2023-03-03T17:14:39;36.90;;;17.73;;
26516;SDS011;14190;51.342;6.338;2023-03-03T17:17:10;32.80;;;16.52;;
26516;SDS011;14190;51.342;6.338;2023-03-03T17:22:08;35.33;;;17.17;;
26516;SDS011;14190;51.342;6.338;2023-03-03T17:24:38;36.03;;;18.42;;
26516;SDS011;14190;51.342;6.338;2023-03-03T17:32:24;31.35;;;16.12;;
26516;SDS011;14190;51.342;6.338;2023-03-03T17:34:53;38.85;;;18.37;;
26516;SDS011;14190;51.342;6.338;2023-03-03T17:45:28;32.45;;;17.10;;
26516;SDS011;14190;51.342;6.338;2023-03-03T17:48:07;36.65;;;18.07;;
26516;SDS011;14190;51.342;6.338;2023-03-03T17:53:25;46.60;;;20.40;;
26516;SDS011;14190;51.342;6.338;2023-03-03T17:55:56;38.65;;;19.12;;
26516;SDS011;14190;51.342;6.338;2023-03-03T18:06:07;38.83;;;18.67;;
26516;SDS011;14190;51.342;6.338;2023-03-03T18:08:43;40.78;;;21.07;;
26516;SDS011;14190;51.342;6.338;2023-03-03T18:11:14;42.70;;;21.10;;
26516;SDS011;14190;51.342;6.338;2023-03-03T18:13:58;39.42;;;20.72;;
26516;SDS011;14190;51.342;6.338;2023-03-03T18:21:58;46.83;;;23.77;;
26516;SDS011;14190;51.342;6.338;2023-03-03T18:26:50;38.73;;;20.80;;
26516;SDS011;14190;51.342;6.338;2023-03-03T18:29:25;42.48;;;22.87;;
26516;SDS011;14190;51.342;6.338;2023-03-03T18:34:35;42.93;;;23.35;;
26516;SDS011;14190;51.342;6.338;2023-03-03T18:37:07;52.08;;;22.62;;
26516;SDS011;14190;51.342;6.338;2023-03-03T18:39:42;43.15;;;23.15;;
26516;SDS011;14190;51.342;6.338;2023-03-03T18:44:43;40.78;;;21.55;;
26516;SDS011;14190;51.342;6.338;2023-03-03T18:47:10;46.00;;;22.02;;
26516;SDS011;14190;51.342;6.338;2023-03-03T18:52:16;54.05;;;23.77;;
26516;SDS011;14190;51.342;6.338;2023-03-03T18:54:53;51.55;;;22.73;;
26516;SDS011;14190;51.342;6.338;2023-03-03T18:57:14;57.40;;;23.75;;
26516;SDS011;14190;51.342;6.338;2023-03-03T18:59:51;49.98;;;22.73;;
26516;SDS011;14190;51.342;6.338;2023-03-03T19:02:19;53.25;;;23.22;;
26516;SDS011;14190;51.342;6.338;2023-03-03T19:04:53;49.58;;;22.05;;